sensor_id;sensor_type;location;lat;lon;timestamp;temperature;humidity
9723;DHT22;4900;49.306;8.500;2023-12-07T00:02:09;4.22;81.68
9723;DHT22;4900;49.306;8.500;2023-12-07T00:04:34;4.19;81.57
9723;DHT22;4900;49.306;8.500;2023-12-07T00:06:59;4.14;81.55
9723;DHT22;4900;49.306;8.500;2023-12-07T00:09:25;4.12;81.51
9723;DHT22;4900;49.306;8.500;2023-12-07T00:11:50;4.08;81.31
9723;DHT22;4900;49.306;8.500;2023-12-07T00:14:16;4.01;81.25
9723;DHT22;4900;49.306;8.500;2023-12-07T00:16:42;3.98;81.11
9723;DHT22;4900;49.306;8.500;2023-12-07T00:19:07;3.95;81.00
9723;DHT22;4900;49.306;8.500;2023-12-07T00:21:33;3.88;80.99
9723;DHT22;4900;49.306;8.500;2023-12-07T00:23:59;3.80;80.88
9723;DHT22;4900;49.306;8.500;2023-12-07T00:26:26;3.76;80.79
9723;DHT22;4900;49.306;8.500;2023-12-07T00:28:52;3.70;80.63
9723;DHT22;4900;49.306;8.500;2023-12-07T00:31:18;3.67;80.75
9723;DHT22;4900;49.306;8.500;2023-12-07T00:33:45;3.64;80.81
9723;DHT22;4900;49.306;8.500;2023-12-07T00:36:11;3.60;80.99
9723;DHT22;4900;49.306;8.500;2023-12-07T00:38:38;3.63;81.02
9723;DHT22;4900;49.306;8.500;2023-12-07T00:41:03;3.63;81.07
9723;DHT22;4900;49.306;8.500;2023-12-07T00:43:29;3.66;81.02
9723;DHT22;4900;49.306;8.500;2023-12-07T00:45:54;3.63;81.00
9723;DHT22;4900;49.306;8.500;2023-12-07T00:48:20;3.62;80.87
9723;DHT22;4900;49.306;8.500;2023-12-07T00:50:45;3.56;80.84
9723;DHT22;4900;49.306;8.500;2023-12-07T00:53:10;3.52;80.78
9723;DHT22;4900;49.306;8.500;2023-12-07T00:55:36;3.46;80.76
9723;DHT22;4900;49.306;8.500;2023-12-07T00:58:01;3.43;80.84
9723;DHT22;4900;49.306;8.500;2023-12-07T01:00:27;3.42;80.98
9723;DHT22;4900;49.306;8.500;2023-12-07T01:02:53;3.39;81.11
9723;DHT22;4900;49.306;8.500;2023-12-07T01:05:18;3.38;81.23
9723;DHT22;4900;49.306;8.500;2023-12-07T01:07:44;3.36;81.38
9723;DHT22;4900;49.306;8.500;2023-12-07T01:10:09;3.39;81.67
9723;DHT22;4900;49.306;8.500;2023-12-07T01:12:35;3.35;81.74
9723;DHT22;4900;49.306;8.500;2023-12-07T01:15:03;3.33;81.82
9723;DHT22;4900;49.306;8.500;2023-12-07T01:17:29;3.31;81.76
9723;DHT22;4900;49.306;8.500;2023-12-07T01:19:55;3.32;81.55
9723;DHT22;4900;49.306;8.500;2023-12-07T01:22:20;3.29;81.45
9723;DHT22;4900;49.306;8.500;2023-12-07T01:24:46;3.24;81.39
9723;DHT22;4900;49.306;8.500;2023-12-07T01:27:11;3.22;81.31
9723;DHT22;4900;49.306;8.500;2023-12-07T01:29:36;3.16;81.15
9723;DHT22;4900;49.306;8.500;2023-12-07T01:32:02;3.12;81.01
9723;DHT22;4900;49.306;8.500;2023-12-07T01:34:28;3.08;80.91
9723;DHT22;4900;49.306;8.500;2023-12-07T01:36:53;3.04;80.82
9723;DHT22;4900;49.306;8.500;2023-12-07T01:39:20;3.01;80.75
9723;DHT22;4900;49.306;8.500;2023-12-07T01:41:47;3.00;80.73
9723;DHT22;4900;49.306;8.500;2023-12-07T01:44:12;2.96;80.74
9723;DHT22;4900;49.306;8.500;2023-12-07T01:46:38;2.94;80.78
9723;DHT22;4900;49.306;8.500;2023-12-07T01:49:03;2.93;80.76
9723;DHT22;4900;49.306;8.500;2023-12-07T01:51:29;2.91;80.85
9723;DHT22;4900;49.306;8.500;2023-12-07T01:53:55;2.93;80.94
9723;DHT22;4900;49.306;8.500;2023-12-07T01:56:21;2.91;81.06
9723;DHT22;4900;49.306;8.500;2023-12-07T01:58:47;2.90;81.20
9723;DHT22;4900;49.306;8.500;2023-12-07T02:01:12;2.93;81.28
9723;DHT22;4900;49.306;8.500;2023-12-07T02:03:41;2.93;81.30
9723;DHT22;4900;49.306;8.500;2023-12-07T02:06:08;2.91;81.27
9723;DHT22;4900;49.306;8.500;2023-12-07T02:08:35;2.90;81.38
9723;DHT22;4900;49.306;8.500;2023-12-07T02:11:01;2.90;81.43
9723;DHT22;4900;49.306;8.500;2023-12-07T02:13:27;2.90;81.53
9723;DHT22;4900;49.306;8.500;2023-12-07T02:15:55;2.86;81.60
9723;DHT22;4900;49.306;8.500;2023-12-07T02:18:30;2.87;81.51
9723;DHT22;4900;49.306;8.500;2023-12-07T02:21:08;2.83;81.33
9723;DHT22;4900;49.306;8.500;2023-12-07T02:23:37;2.80;81.21
9723;DHT22;4900;49.306;8.500;2023-12-07T02:26:03;2.77;81.10
9723;DHT22;4900;49.306;8.500;2023-12-07T02:28:30;2.72;80.94
9723;DHT22;4900;49.306;8.500;2023-12-07T02:30:55;2.70;80.90
9723;DHT22;4900;49.306;8.500;2023-12-07T02:33:21;2.65;80.91
9723;DHT22;4900;49.306;8.500;2023-12-07T02:35:46;2.62;80.97
9723;DHT22;4900;49.306;8.500;2023-12-07T02:38:12;2.60;81.04
9723;DHT22;4900;49.306;8.500;2023-12-07T02:40:39;2.56;81.04
9723;DHT22;4900;49.306;8.500;2023-12-07T02:43:07;2.55;81.33
9723;DHT22;4900;49.306;8.500;2023-12-07T02:45:33;2.56;81.44
9723;DHT22;4900;49.306;8.500;2023-12-07T02:47:58;2.56;81.60
9723;DHT22;4900;49.306;8.500;2023-12-07T02:50:24;2.55;81.65
9723;DHT22;4900;49.306;8.500;2023-12-07T02:52:49;2.53;81.62
9723;DHT22;4900;49.306;8.500;2023-12-07T02:55:15;2.51;81.59
9723;DHT22;4900;49.306;8.500;2023-12-07T02:57:40;2.49;81.62
9723;DHT22;4900;49.306;8.500;2023-12-07T03:00:06;2.49;81.52
9723;DHT22;4900;49.306;8.500;2023-12-07T03:02:36;2.48;81.37
9723;DHT22;4900;49.306;8.500;2023-12-07T03:05:02;2.42;81.50
9723;DHT22;4900;49.306;8.500;2023-12-07T03:07:29;2.40;81.53
9723;DHT22;4900;49.306;8.500;2023-12-07T03:09:55;2.41;81.55
9723;DHT22;4900;49.306;8.500;2023-12-07T03:12:20;2.40;81.66
9723;DHT22;4900;49.306;8.500;2023-12-07T03:14:46;2.40;81.72
9723;DHT22;4900;49.306;8.500;2023-12-07T03:17:11;2.38;81.60
9723;DHT22;4900;49.306;8.500;2023-12-07T03:19:40;2.34;81.63
9723;DHT22;4900;49.306;8.500;2023-12-07T03:22:06;2.32;81.85
9723;DHT22;4900;49.306;8.500;2023-12-07T03:24:36;2.32;81.89
9723;DHT22;4900;49.306;8.500;2023-12-07T03:27:01;2.31;81.99
9723;DHT22;4900;49.306;8.500;2023-12-07T03:29:27;2.30;82.08
9723;DHT22;4900;49.306;8.500;2023-12-07T03:31:52;2.31;82.04
9723;DHT22;4900;49.306;8.500;2023-12-07T03:34:18;2.31;81.94
9723;DHT22;4900;49.306;8.500;2023-12-07T03:36:47;2.31;81.85
9723;DHT22;4900;49.306;8.500;2023-12-07T03:39:16;2.28;81.83
9723;DHT22;4900;49.306;8.500;2023-12-07T03:41:44;2.27;81.57
9723;DHT22;4900;49.306;8.500;2023-12-07T03:44:10;2.25;81.47
9723;DHT22;4900;49.306;8.500;2023-12-07T03:46:35;2.22;81.35
9723;DHT22;4900;49.306;8.500;2023-12-07T03:49:01;2.20;81.28
9723;DHT22;4900;49.306;8.500;2023-12-07T03:51:27;2.15;81.18
9723;DHT22;4900;49.306;8.500;2023-12-07T03:53:54;2.11;81.08
9723;DHT22;4900;49.306;8.500;2023-12-07T03:56:27;2.07;81.11
9723;DHT22;4900;49.306;8.500;2023-12-07T03:58:53;2.06;80.93
9723;DHT22;4900;49.306;8.500;2023-12-07T04:01:22;2.00;80.83
9723;DHT22;4900;49.306;8.500;2023-12-07T04:03:55;1.97;80.81
9723;DHT22;4900;49.306;8.500;2023-12-07T04:06:22;1.96;80.82
9723;DHT22;4900;49.306;8.500;2023-12-07T04:08:47;1.96;80.79
9723;DHT22;4900;49.306;8.500;2023-12-07T04:11:14;1.91;80.81
9723;DHT22;4900;49.306;8.500;2023-12-07T04:13:40;1.90;80.61
9723;DHT22;4900;49.306;8.500;2023-12-07T04:16:07;1.87;80.52
9723;DHT22;4900;49.306;8.500;2023-12-07T04:18:33;1.80;80.59
9723;DHT22;4900;49.306;8.500;2023-12-07T04:20:58;1.78;80.73
9723;DHT22;4900;49.306;8.500;2023-12-07T04:23:24;1.73;80.56
9723;DHT22;4900;49.306;8.500;2023-12-07T04:25:50;1.70;80.43
9723;DHT22;4900;49.306;8.500;2023-12-07T04:28:15;1.66;80.29
9723;DHT22;4900;49.306;8.500;2023-12-07T04:30:41;1.62;80.14
9723;DHT22;4900;49.306;8.500;2023-12-07T04:33:06;1.58;80.16
9723;DHT22;4900;49.306;8.500;2023-12-07T04:35:32;1.56;80.05
9723;DHT22;4900;49.306;8.500;2023-12-07T04:37:57;1.51;80.03
9723;DHT22;4900;49.306;8.500;2023-12-07T04:40:24;1.45;79.97
9723;DHT22;4900;49.306;8.500;2023-12-07T04:42:50;1.42;79.99
9723;DHT22;4900;49.306;8.500;2023-12-07T04:45:16;1.35;79.96
9723;DHT22;4900;49.306;8.500;2023-12-07T04:47:41;1.37;79.95
9723;DHT22;4900;49.306;8.500;2023-12-07T04:50:07;1.35;79.99
9723;DHT22;4900;49.306;8.500;2023-12-07T04:52:33;1.33;80.13
9723;DHT22;4900;49.306;8.500;2023-12-07T04:54:59;1.34;80.39
9723;DHT22;4900;49.306;8.500;2023-12-07T04:57:24;1.34;80.55
9723;DHT22;4900;49.306;8.500;2023-12-07T04:59:50;1.37;80.61
9723;DHT22;4900;49.306;8.500;2023-12-07T05:02:16;1.38;80.70
9723;DHT22;4900;49.306;8.500;2023-12-07T05:04:42;1.37;80.92
9723;DHT22;4900;49.306;8.500;2023-12-07T05:07:08;1.40;80.92
9723;DHT22;4900;49.306;8.500;2023-12-07T05:09:33;1.41;81.05
9723;DHT22;4900;49.306;8.500;2023-12-07T05:12:00;1.42;81.07
9723;DHT22;4900;49.306;8.500;2023-12-07T05:14:26;1.42;81.13
9723;DHT22;4900;49.306;8.500;2023-12-07T05:16:52;1.42;81.06
9723;DHT22;4900;49.306;8.500;2023-12-07T05:19:24;1.41;81.10
9723;DHT22;4900;49.306;8.500;2023-12-07T05:21:50;1.44;81.27
9723;DHT22;4900;49.306;8.500;2023-12-07T05:24:16;1.45;81.26
9723;DHT22;4900;49.306;8.500;2023-12-07T05:26:42;1.48;81.31
9723;DHT22;4900;49.306;8.500;2023-12-07T05:29:08;1.48;81.34
9723;DHT22;4900;49.306;8.500;2023-12-07T05:31:33;1.50;81.41
9723;DHT22;4900;49.306;8.500;2023-12-07T05:33:59;1.52;81.48
9723;DHT22;4900;49.306;8.500;2023-12-07T05:36:24;1.52;81.50
9723;DHT22;4900;49.306;8.500;2023-12-07T05:38:51;1.52;81.41
9723;DHT22;4900;49.306;8.500;2023-12-07T05:41:16;1.52;81.45
9723;DHT22;4900;49.306;8.500;2023-12-07T05:43:42;1.55;81.41
9723;DHT22;4900;49.306;8.500;2023-12-07T05:46:07;1.54;81.33
9723;DHT22;4900;49.306;8.500;2023-12-07T05:48:33;1.55;81.32
9723;DHT22;4900;49.306;8.500;2023-12-07T05:50:58;1.54;81.29
9723;DHT22;4900;49.306;8.500;2023-12-07T05:53:24;1.52;81.28
9723;DHT22;4900;49.306;8.500;2023-12-07T05:55:50;1.52;81.28
9723;DHT22;4900;49.306;8.500;2023-12-07T05:58:16;1.52;81.30
9723;DHT22;4900;49.306;8.500;2023-12-07T06:00:43;1.55;81.33
9723;DHT22;4900;49.306;8.500;2023-12-07T06:03:10;1.52;81.33
9723;DHT22;4900;49.306;8.500;2023-12-07T06:05:38;1.52;81.41
9723;DHT22;4900;49.306;8.500;2023-12-07T06:08:04;1.52;81.40
9723;DHT22;4900;49.306;8.500;2023-12-07T06:10:30;1.52;81.42
9723;DHT22;4900;49.306;8.500;2023-12-07T06:12:56;1.51;81.39
9723;DHT22;4900;49.306;8.500;2023-12-07T06:15:24;1.48;81.42
9723;DHT22;4900;49.306;8.500;2023-12-07T06:17:49;1.45;81.32
9723;DHT22;4900;49.306;8.500;2023-12-07T06:20:15;1.44;81.27
9723;DHT22;4900;49.306;8.500;2023-12-07T06:22:40;1.41;81.20
9723;DHT22;4900;49.306;8.500;2023-12-07T06:25:06;1.37;81.17
9723;DHT22;4900;49.306;8.500;2023-12-07T06:27:35;1.33;81.07
9723;DHT22;4900;49.306;8.500;2023-12-07T06:30:00;1.31;80.96
9723;DHT22;4900;49.306;8.500;2023-12-07T06:32:27;1.28;80.89
9723;DHT22;4900;49.306;8.500;2023-12-07T06:34:52;1.28;80.85
9723;DHT22;4900;49.306;8.500;2023-12-07T06:37:18;1.21;80.81
9723;DHT22;4900;49.306;8.500;2023-12-07T06:39:45;1.20;80.82
9723;DHT22;4900;49.306;8.500;2023-12-07T06:42:11;1.17;80.83
9723;DHT22;4900;49.306;8.500;2023-12-07T06:44:36;1.20;80.89
9723;DHT22;4900;49.306;8.500;2023-12-07T06:47:02;1.17;80.98
9723;DHT22;4900;49.306;8.500;2023-12-07T06:49:30;1.21;81.05
9723;DHT22;4900;49.306;8.500;2023-12-07T06:51:55;1.20;81.10
9723;DHT22;4900;49.306;8.500;2023-12-07T06:54:21;1.23;81.17
9723;DHT22;4900;49.306;8.500;2023-12-07T06:56:47;1.21;81.16
9723;DHT22;4900;49.306;8.500;2023-12-07T06:59:12;1.23;81.06
9723;DHT22;4900;49.306;8.500;2023-12-07T07:01:38;1.24;81.02
9723;DHT22;4900;49.306;8.500;2023-12-07T07:04:04;1.20;80.85
9723;DHT22;4900;49.306;8.500;2023-12-07T07:06:29;1.17;80.71
9723;DHT22;4900;49.306;8.500;2023-12-07T07:08:55;1.14;80.77
9723;DHT22;4900;49.306;8.500;2023-12-07T07:11:20;1.13;80.75
9723;DHT22;4900;49.306;8.500;2023-12-07T07:13:46;1.16;80.73
9723;DHT22;4900;49.306;8.500;2023-12-07T07:16:11;1.14;80.74
9723;DHT22;4900;49.306;8.500;2023-12-07T07:18:40;1.17;80.77
9723;DHT22;4900;49.306;8.500;2023-12-07T07:21:06;1.17;80.83
9723;DHT22;4900;49.306;8.500;2023-12-07T07:23:32;1.20;80.96
9723;DHT22;4900;49.306;8.500;2023-12-07T07:25:57;1.23;81.06
9723;DHT22;4900;49.306;8.500;2023-12-07T07:28:23;1.24;81.08
9723;DHT22;4900;49.306;8.500;2023-12-07T07:30:48;1.28;81.08
9723;DHT22;4900;49.306;8.500;2023-12-07T07:33:14;1.30;81.20
9723;DHT22;4900;49.306;8.500;2023-12-07T07:35:39;1.33;81.11
9723;DHT22;4900;49.306;8.500;2023-12-07T07:38:04;1.33;81.07
9723;DHT22;4900;49.306;8.500;2023-12-07T07:40:30;1.37;81.06
9723;DHT22;4900;49.306;8.500;2023-12-07T07:42:55;1.37;81.05
9723;DHT22;4900;49.306;8.500;2023-12-07T07:45:21;1.38;81.08
9723;DHT22;4900;49.306;8.500;2023-12-07T07:47:46;1.42;81.18
9723;DHT22;4900;49.306;8.500;2023-12-07T07:50:12;1.47;81.18
9723;DHT22;4900;49.306;8.500;2023-12-07T07:52:37;1.51;81.21
9723;DHT22;4900;49.306;8.500;2023-12-07T07:55:03;1.55;81.32
9723;DHT22;4900;49.306;8.500;2023-12-07T07:57:30;1.65;81.44
9723;DHT22;4900;49.306;8.500;2023-12-07T07:59:56;1.75;81.53
9723;DHT22;4900;49.306;8.500;2023-12-07T08:02:22;1.80;81.74
9723;DHT22;4900;49.306;8.500;2023-12-07T08:04:48;1.87;81.86
9723;DHT22;4900;49.306;8.500;2023-12-07T08:07:13;2.00;81.91
9723;DHT22;4900;49.306;8.500;2023-12-07T08:09:39;2.11;81.99
9723;DHT22;4900;49.306;8.500;2023-12-07T08:12:05;2.15;82.02
9723;DHT22;4900;49.306;8.500;2023-12-07T08:14:32;2.27;82.19
9723;DHT22;4900;49.306;8.500;2023-12-07T08:16:57;2.32;82.22
9723;DHT22;4900;49.306;8.500;2023-12-07T08:19:22;2.40;82.25
9723;DHT22;4900;49.306;8.500;2023-12-07T08:21:48;2.49;82.26
9723;DHT22;4900;49.306;8.500;2023-12-07T08:24:15;2.55;82.26
9723;DHT22;4900;49.306;8.500;2023-12-07T08:26:41;2.60;82.29
9723;DHT22;4900;49.306;8.500;2023-12-07T08:29:06;2.68;82.34
9723;DHT22;4900;49.306;8.500;2023-12-07T08:31:31;2.73;82.33
9723;DHT22;4900;49.306;8.500;2023-12-07T08:33:57;2.79;82.35
9723;DHT22;4900;49.306;8.500;2023-12-07T08:36:22;2.86;82.32
9723;DHT22;4900;49.306;8.500;2023-12-07T08:38:48;2.93;82.40
9723;DHT22;4900;49.306;8.500;2023-12-07T08:41:13;2.96;82.53
9723;DHT22;4900;49.306;8.500;2023-12-07T08:43:39;3.04;82.62
9723;DHT22;4900;49.306;8.500;2023-12-07T08:46:05;3.16;82.59
9723;DHT22;4900;49.306;8.500;2023-12-07T08:48:33;3.25;82.62
9723;DHT22;4900;49.306;8.500;2023-12-07T08:50:59;3.32;82.66
9723;DHT22;4900;49.306;8.500;2023-12-07T08:53:24;3.45;82.76
9723;DHT22;4900;49.306;8.500;2023-12-07T08:55:50;3.53;82.72
9723;DHT22;4900;49.306;8.500;2023-12-07T08:58:16;3.66;82.69
9723;DHT22;4900;49.306;8.500;2023-12-07T09:00:41;3.79;82.58
9723;DHT22;4900;49.306;8.500;2023-12-07T09:03:07;3.87;82.56
9723;DHT22;4900;49.306;8.500;2023-12-07T09:05:32;4.04;82.55
9723;DHT22;4900;49.306;8.500;2023-12-07T09:07:58;4.15;82.43
9723;DHT22;4900;49.306;8.500;2023-12-07T09:10:23;4.22;82.26
9723;DHT22;4900;49.306;8.500;2023-12-07T09:12:49;4.33;82.13
9723;DHT22;4900;49.306;8.500;2023-12-07T09:15:14;4.45;82.08
9723;DHT22;4900;49.306;8.500;2023-12-07T09:17:40;4.48;81.92
9723;DHT22;4900;49.306;8.500;2023-12-07T09:20:10;4.57;81.90
9723;DHT22;4900;49.306;8.500;2023-12-07T09:22:39;4.67;81.80
9723;DHT22;4900;49.306;8.500;2023-12-07T09:25:06;4.78;81.69
9723;DHT22;4900;49.306;8.500;2023-12-07T09:27:33;4.89;81.62
9723;DHT22;4900;49.306;8.500;2023-12-07T09:30:00;4.98;81.44
9723;DHT22;4900;49.306;8.500;2023-12-07T09:32:25;5.11;81.36
9723;DHT22;4900;49.306;8.500;2023-12-07T09:34:53;5.18;81.24
9723;DHT22;4900;49.306;8.500;2023-12-07T09:37:18;5.29;81.17
9723;DHT22;4900;49.306;8.500;2023-12-07T09:39:44;5.40;80.99
9723;DHT22;4900;49.306;8.500;2023-12-07T09:42:10;5.50;80.78
9723;DHT22;4900;49.306;8.500;2023-12-07T09:44:35;5.59;80.72
9723;DHT22;4900;49.306;8.500;2023-12-07T09:47:01;5.71;80.60
9723;DHT22;4900;49.306;8.500;2023-12-07T09:49:27;5.75;80.32
9723;DHT22;4900;49.306;8.500;2023-12-07T09:51:53;5.78;80.44
9723;DHT22;4900;49.306;8.500;2023-12-07T09:54:20;5.87;80.24
9723;DHT22;4900;49.306;8.500;2023-12-07T09:56:47;5.95;80.35
9723;DHT22;4900;49.306;8.500;2023-12-07T09:59:12;5.94;80.44
9723;DHT22;4900;49.306;8.500;2023-12-07T10:01:38;5.98;80.58
9723;DHT22;4900;49.306;8.500;2023-12-07T10:04:23;5.98;80.23
9723;DHT22;4900;49.306;8.500;2023-12-07T10:06:52;6.08;80.20
9723;DHT22;4900;49.306;8.500;2023-12-07T10:09:19;6.09;80.17
9723;DHT22;4900;49.306;8.500;2023-12-07T10:11:47;6.12;80.09
9723;DHT22;4900;49.306;8.500;2023-12-07T10:14:14;6.17;80.09
9723;DHT22;4900;49.306;8.500;2023-12-07T10:16:52;6.27;79.87
9723;DHT22;4900;49.306;8.500;2023-12-07T10:19:21;6.33;79.98
9723;DHT22;4900;49.306;8.500;2023-12-07T10:21:50;6.40;79.91
9723;DHT22;4900;49.306;8.500;2023-12-07T10:24:17;6.40;79.84
9723;DHT22;4900;49.306;8.500;2023-12-07T10:26:44;6.51;79.76
9723;DHT22;4900;49.306;8.500;2023-12-07T10:29:10;6.58;79.58
9723;DHT22;4900;49.306;8.500;2023-12-07T10:31:41;6.63;79.37
9723;DHT22;4900;49.306;8.500;2023-12-07T10:34:07;6.77;79.16
9723;DHT22;4900;49.306;8.500;2023-12-07T10:36:33;6.85;79.06
9723;DHT22;4900;49.306;8.500;2023-12-07T10:38:59;6.98;79.01
9723;DHT22;4900;49.306;8.500;2023-12-07T10:41:25;7.02;78.98
9723;DHT22;4900;49.306;8.500;2023-12-07T10:43:58;7.10;78.77
9723;DHT22;4900;49.306;8.500;2023-12-07T10:46:25;7.24;78.64
9723;DHT22;4900;49.306;8.500;2023-12-07T10:48:55;7.37;78.55
9723;DHT22;4900;49.306;8.500;2023-12-07T10:51:45;7.56;78.04
9723;DHT22;4900;49.306;8.500;2023-12-07T10:54:16;7.77;78.17
9723;DHT22;4900;49.306;8.500;2023-12-07T10:56:45;7.98;77.90
9723;DHT22;4900;49.306;8.500;2023-12-07T10:59:12;8.12;77.81
9723;DHT22;4900;49.306;8.500;2023-12-07T11:01:42;8.17;77.63
9723;DHT22;4900;49.306;8.500;2023-12-07T11:04:12;8.24;77.16
9723;DHT22;4900;49.306;8.500;2023-12-07T11:06:39;8.30;76.84
9723;DHT22;4900;49.306;8.500;2023-12-07T11:09:10;8.41;76.96
9723;DHT22;4900;49.306;8.500;2023-12-07T11:11:48;8.48;76.32
9723;DHT22;4900;49.306;8.500;2023-12-07T11:14:16;8.34;76.09
9723;DHT22;4900;49.306;8.500;2023-12-07T11:16:43;8.34;76.06
9723;DHT22;4900;49.306;8.500;2023-12-07T11:21:55;8.46;76.39
9723;DHT22;4900;49.306;8.500;2023-12-07T11:24:23;8.55;76.28
9723;DHT22;4900;49.306;8.500;2023-12-07T11:26:51;8.63;76.40
9723;DHT22;4900;49.306;8.500;2023-12-07T11:29:20;8.68;76.49
9723;DHT22;4900;49.306;8.500;2023-12-07T11:31:46;8.77;76.23
9723;DHT22;4900;49.306;8.500;2023-12-07T11:34:11;8.71;75.96
9723;DHT22;4900;49.306;8.500;2023-12-07T11:36:39;8.72;75.90
9723;DHT22;4900;49.306;8.500;2023-12-07T11:41:44;8.63;75.70
9723;DHT22;4900;49.306;8.500;2023-12-07T11:44:10;8.61;75.57
9723;DHT22;4900;49.306;8.500;2023-12-07T11:46:37;8.52;75.78
9723;DHT22;4900;49.306;8.500;2023-12-07T11:49:03;8.51;75.69
9723;DHT22;4900;49.306;8.500;2023-12-07T11:51:29;8.41;75.46
9723;DHT22;4900;49.306;8.500;2023-12-07T11:53:54;8.28;75.48
9723;DHT22;4900;49.306;8.500;2023-12-07T11:56:20;8.26;75.63
9723;DHT22;4900;49.306;8.500;2023-12-07T11:58:47;8.21;75.62
9723;DHT22;4900;49.306;8.500;2023-12-07T12:01:13;8.16;75.61
9723;DHT22;4900;49.306;8.500;2023-12-07T12:03:38;8.05;75.74
9723;DHT22;4900;49.306;8.500;2023-12-07T12:06:06;8.00;75.91
9723;DHT22;4900;49.306;8.500;2023-12-07T12:08:33;7.98;75.80
9723;DHT22;4900;49.306;8.500;2023-12-07T12:10:58;7.79;75.83
9723;DHT22;4900;49.306;8.500;2023-12-07T12:13:33;7.68;75.96
9723;DHT22;4900;49.306;8.500;2023-12-07T12:16:00;7.66;76.13
9723;DHT22;4900;49.306;8.500;2023-12-07T12:18:27;7.71;76.14
9723;DHT22;4900;49.306;8.500;2023-12-07T12:20:55;7.79;76.06
9723;DHT22;4900;49.306;8.500;2023-12-07T12:23:24;7.75;76.11
9723;DHT22;4900;49.306;8.500;2023-12-07T12:25:50;7.72;76.01
9723;DHT22;4900;49.306;8.500;2023-12-07T12:28:17;7.69;76.02
9723;DHT22;4900;49.306;8.500;2023-12-07T12:30:44;7.63;75.85
9723;DHT22;4900;49.306;8.500;2023-12-07T12:33:10;7.52;75.97
9723;DHT22;4900;49.306;8.500;2023-12-07T12:35:35;7.50;76.03
9723;DHT22;4900;49.306;8.500;2023-12-07T12:38:01;7.47;76.09
9723;DHT22;4900;49.306;8.500;2023-12-07T12:40:28;7.41;76.27
9723;DHT22;4900;49.306;8.500;2023-12-07T12:42:57;7.38;76.26
9723;DHT22;4900;49.306;8.500;2023-12-07T12:45:23;7.40;76.42
9723;DHT22;4900;49.306;8.500;2023-12-07T12:47:49;7.37;76.48
9723;DHT22;4900;49.306;8.500;2023-12-07T12:52:59;7.34;76.61
9723;DHT22;4900;49.306;8.500;2023-12-07T12:55:26;7.30;76.67
9723;DHT22;4900;49.306;8.500;2023-12-07T12:57:51;7.31;76.62
9723;DHT22;4900;49.306;8.500;2023-12-07T13:00:17;7.27;76.60
9723;DHT22;4900;49.306;8.500;2023-12-07T13:02:43;7.30;76.46
9723;DHT22;4900;49.306;8.500;2023-12-07T13:05:08;7.28;76.46
9723;DHT22;4900;49.306;8.500;2023-12-07T13:07:34;7.28;76.44
9723;DHT22;4900;49.306;8.500;2023-12-07T13:10:01;7.22;76.50
9723;DHT22;4900;49.306;8.500;2023-12-07T13:12:26;7.20;76.37
9723;DHT22;4900;49.306;8.500;2023-12-07T13:14:53;7.22;76.44
9723;DHT22;4900;49.306;8.500;2023-12-07T13:17:19;7.26;76.34
9723;DHT22;4900;49.306;8.500;2023-12-07T13:19:44;7.22;76.45
9723;DHT22;4900;49.306;8.500;2023-12-07T13:22:10;7.27;76.30
9723;DHT22;4900;49.306;8.500;2023-12-07T13:24:35;7.30;76.45
9723;DHT22;4900;49.306;8.500;2023-12-07T13:27:01;7.31;76.52
9723;DHT22;4900;49.306;8.500;2023-12-07T13:29:27;7.34;76.63
9723;DHT22;4900;49.306;8.500;2023-12-07T13:31:52;7.44;76.80
9723;DHT22;4900;49.306;8.500;2023-12-07T13:34:18;7.52;76.96
9723;DHT22;4900;49.306;8.500;2023-12-07T13:36:43;7.65;77.04
9723;DHT22;4900;49.306;8.500;2023-12-07T13:39:09;7.72;77.08
9723;DHT22;4900;49.306;8.500;2023-12-07T13:41:35;7.85;77.12
9723;DHT22;4900;49.306;8.500;2023-12-07T13:44:01;7.96;76.80
9723;DHT22;4900;49.306;8.500;2023-12-07T13:46:26;8.07;76.52
9723;DHT22;4900;49.306;8.500;2023-12-07T13:48:52;8.13;76.17
9723;DHT22;4900;49.306;8.500;2023-12-07T13:51:18;8.26;76.06
9723;DHT22;4900;49.306;8.500;2023-12-07T13:53:43;8.26;75.58
9723;DHT22;4900;49.306;8.500;2023-12-07T13:56:09;8.28;75.41
9723;DHT22;4900;49.306;8.500;2023-12-07T13:58:35;8.26;75.36
9723;DHT22;4900;49.306;8.500;2023-12-07T14:01:01;8.23;74.92
9723;DHT22;4900;49.306;8.500;2023-12-07T14:03:26;8.16;74.81
9723;DHT22;4900;49.306;8.500;2023-12-07T14:05:52;8.12;74.74
9723;DHT22;4900;49.306;8.500;2023-12-07T14:08:17;8.03;74.63
9723;DHT22;4900;49.306;8.500;2023-12-07T14:10:44;7.95;74.59
9723;DHT22;4900;49.306;8.500;2023-12-07T14:13:10;7.79;74.64
9723;DHT22;4900;49.306;8.500;2023-12-07T14:15:35;7.66;74.60
9723;DHT22;4900;49.306;8.500;2023-12-07T14:18:01;7.59;74.69
9723;DHT22;4900;49.306;8.500;2023-12-07T14:20:30;7.43;74.81
9723;DHT22;4900;49.306;8.500;2023-12-07T14:22:56;7.30;75.00
9723;DHT22;4900;49.306;8.500;2023-12-07T14:25:21;7.20;75.01
9723;DHT22;4900;49.306;8.500;2023-12-07T14:27:48;7.03;75.08
9723;DHT22;4900;49.306;8.500;2023-12-07T14:30:14;6.93;75.19
9723;DHT22;4900;49.306;8.500;2023-12-07T14:32:42;6.87;75.38
9723;DHT22;4900;49.306;8.500;2023-12-07T14:35:09;6.79;75.58
9723;DHT22;4900;49.306;8.500;2023-12-07T14:37:34;6.68;75.74
9723;DHT22;4900;49.306;8.500;2023-12-07T14:40:00;6.55;75.75
9723;DHT22;4900;49.306;8.500;2023-12-07T14:42:25;6.44;75.91
9723;DHT22;4900;49.306;8.500;2023-12-07T14:44:51;6.33;75.93
9723;DHT22;4900;49.306;8.500;2023-12-07T14:47:16;6.23;76.05
9723;DHT22;4900;49.306;8.500;2023-12-07T14:49:42;6.15;76.21
9723;DHT22;4900;49.306;8.500;2023-12-07T14:52:07;6.09;76.31
9723;DHT22;4900;49.306;8.500;2023-12-07T14:54:33;5.95;76.40
9723;DHT22;4900;49.306;8.500;2023-12-07T14:57:01;5.89;76.49
9723;DHT22;4900;49.306;8.500;2023-12-07T14:59:29;5.81;76.61
9723;DHT22;4900;49.306;8.500;2023-12-07T15:01:54;5.70;76.85
9723;DHT22;4900;49.306;8.500;2023-12-07T15:04:21;5.67;76.82
9723;DHT22;4900;49.306;8.500;2023-12-07T15:06:46;5.59;76.99
9723;DHT22;4900;49.306;8.500;2023-12-07T15:09:12;5.50;77.03
9723;DHT22;4900;49.306;8.500;2023-12-07T15:11:39;5.44;77.08
9723;DHT22;4900;49.306;8.500;2023-12-07T15:14:05;5.37;77.14
9723;DHT22;4900;49.306;8.500;2023-12-07T15:16:30;5.23;77.42
9723;DHT22;4900;49.306;8.500;2023-12-07T15:18:56;5.18;77.62
9723;DHT22;4900;49.306;8.500;2023-12-07T15:21:22;5.13;77.59
9723;DHT22;4900;49.306;8.500;2023-12-07T15:23:48;5.09;77.72
9723;DHT22;4900;49.306;8.500;2023-12-07T15:26:14;5.02;77.73
9723;DHT22;4900;49.306;8.500;2023-12-07T15:28:40;4.91;77.70
9723;DHT22;4900;49.306;8.500;2023-12-07T15:31:06;4.83;77.71
9723;DHT22;4900;49.306;8.500;2023-12-07T15:33:33;4.77;77.66
9723;DHT22;4900;49.306;8.500;2023-12-07T15:35:59;4.69;77.74
9723;DHT22;4900;49.306;8.500;2023-12-07T15:38:25;4.60;77.87
9723;DHT22;4900;49.306;8.500;2023-12-07T15:40:51;4.52;77.97
9723;DHT22;4900;49.306;8.500;2023-12-07T15:43:28;4.46;77.98
9723;DHT22;4900;49.306;8.500;2023-12-07T15:45:54;4.36;78.07
9723;DHT22;4900;49.306;8.500;2023-12-07T15:48:20;4.30;78.11
9723;DHT22;4900;49.306;8.500;2023-12-07T15:50:48;4.24;78.09
9723;DHT22;4900;49.306;8.500;2023-12-07T15:53:14;4.16;78.09
9723;DHT22;4900;49.306;8.500;2023-12-07T15:55:41;4.07;78.16
9723;DHT22;4900;49.306;8.500;2023-12-07T15:58:06;4.01;78.29
9723;DHT22;4900;49.306;8.500;2023-12-07T16:00:33;3.94;78.36
9723;DHT22;4900;49.306;8.500;2023-12-07T16:02:58;3.91;78.39
9723;DHT22;4900;49.306;8.500;2023-12-07T16:05:25;3.84;78.39
9723;DHT22;4900;49.306;8.500;2023-12-07T16:07:50;3.77;78.72
9723;DHT22;4900;49.306;8.500;2023-12-07T16:10:17;3.74;78.85
9723;DHT22;4900;49.306;8.500;2023-12-07T16:12:42;3.71;79.10
9723;DHT22;4900;49.306;8.500;2023-12-07T16:15:08;3.66;79.15
9723;DHT22;4900;49.306;8.500;2023-12-07T16:17:33;3.63;79.33
9723;DHT22;4900;49.306;8.500;2023-12-07T16:19:59;3.60;79.59